createdAt,value
2017-11-03T00:00:06.960Z,42.13
2017-11-03T00:01:12.725Z,40.28
2017-11-03T00:02:18.492Z,41.28
2017-11-03T00:03:24.521Z,44.05
2017-11-03T00:04:30.285Z,44.20
2017-11-03T00:05:36.070Z,38.33
2017-11-03T00:06:42.597Z,41.70
2017-11-03T00:07:48.361Z,39.78
2017-11-03T00:08:54.887Z,42.33
2017-11-03T00:10:00.653Z,40.55
2017-11-03T00:11:06.440Z,40.78
2017-11-03T00:12:12.212Z,45.95
2017-11-03T00:13:17.969Z,43.03
2017-11-03T00:14:23.732Z,41.28
2017-11-03T00:15:30.264Z,42.70
2017-11-03T00:16:36.057Z,48.75
2017-11-03T00:17:41.620Z,44.80
2017-11-03T00:18:47.390Z,45.67
2017-11-03T00:19:53.148Z,40.12
2017-11-03T00:20:59.674Z,41.42
2017-11-03T00:22:05.464Z,42.70
2017-11-03T00:23:11.989Z,45.20
2017-11-03T00:24:17.750Z,43.00
2017-11-03T00:25:24.273Z,44.10
2017-11-03T00:26:30.052Z,45.42
2017-11-03T00:27:35.633Z,49.45
2017-11-03T00:28:41.396Z,44.13
2017-11-03T00:29:47.153Z,46.83
2017-11-03T00:30:52.923Z,46.63
2017-11-03T00:31:59.459Z,53.72
2017-11-03T00:33:05.249Z,45.75
2017-11-03T00:34:11.013Z,43.13
2017-11-03T00:35:16.774Z,46.00
2017-11-03T00:36:22.545Z,47.13
2017-11-03T00:37:28.392Z,46.90
2017-11-03T00:38:34.942Z,42.72
2017-11-03T00:39:41.465Z,45.70
2017-11-03T00:40:47.240Z,39.70
2017-11-03T00:41:53.009Z,44.33
2017-11-03T00:42:58.764Z,43.05
2017-11-03T00:44:04.606Z,38.03
2017-11-03T00:45:10.365Z,45.30
2017-11-03T00:46:16.133Z,45.50
2017-11-03T00:47:21.904Z,43.60
2017-11-03T00:48:27.665Z,44.53
2017-11-03T00:49:34.232Z,46.67
2017-11-03T00:50:39.775Z,36.83
2017-11-03T00:51:45.533Z,43.15
2017-11-03T00:52:51.307Z,42.00
2017-11-03T00:53:57.075Z,46.63
2017-11-03T00:55:02.880Z,40.50
2017-11-03T00:56:08.653Z,39.65
2017-11-03T00:57:14.400Z,41.60
2017-11-03T00:58:20.164Z,38.85
2017-11-03T00:59:26.700Z,39.95
2017-11-03T01:00:33.265Z,42.53
2017-11-03T01:01:39.016Z,37.55
2017-11-03T01:02:45.553Z,38.65
2017-11-03T01:03:51.308Z,42.65
2017-11-03T01:04:57.069Z,40.45
2017-11-03T01:06:03.613Z,42.70
2017-11-03T01:07:10.141Z,41.25
2017-11-03T01:08:15.906Z,41.37
2017-11-03T01:09:21.316Z,39.10
2017-11-03T01:10:27.077Z,40.28
2017-11-03T01:11:32.862Z,35.65
2017-11-03T01:12:38.623Z,34.38
2017-11-03T01:13:44.378Z,41.80
2017-11-03T01:14:50.146Z,44.38
2017-11-03T01:15:55.933Z,38.55
2017-11-03T01:17:01.729Z,41.28
2017-11-03T01:18:08.266Z,40.88
2017-11-03T01:19:14.035Z,38.55
2017-11-03T01:20:19.813Z,42.20
2017-11-03T01:21:25.577Z,40.22
2017-11-03T01:22:31.388Z,45.83
2017-11-03T01:23:37.913Z,39.63
2017-11-03T01:24:43.677Z,39.88
2017-11-03T01:25:50.218Z,37.53
2017-11-03T01:26:57.482Z,39.75
2017-11-03T01:28:03.285Z,39.75
2017-11-03T01:29:09.045Z,44.30
2017-11-03T01:30:14.800Z,45.35
2017-11-03T01:31:20.012Z,40.83
2017-11-03T01:32:25.524Z,40.20
2017-11-03T01:33:31.323Z,44.45
2017-11-03T01:34:37.088Z,43.65
2017-11-03T01:35:43.607Z,43.08
2017-11-03T01:36:49.364Z,39.85
2017-11-03T01:37:55.130Z,37.95
2017-11-03T01:39:01.685Z,46.92
2017-11-03T01:40:07.460Z,43.90
2017-11-03T01:41:13.217Z,39.17
2017-11-03T01:42:18.986Z,45.97
2017-11-03T01:43:24.670Z,43.75
2017-11-03T01:44:30.528Z,40.05
2017-11-03T01:45:36.293Z,44.83
2017-11-03T01:46:42.049Z,40.50
2017-11-03T01:47:47.459Z,42.70
2017-11-03T01:48:53.216Z,40.50
2017-11-03T01:49:59.003Z,42.90
2017-11-03T01:51:05.537Z,45.22
2017-11-03T01:52:11.288Z,38.35
2017-11-03T01:53:17.068Z,43.42
2017-11-03T01:54:22.812Z,40.90
2017-11-03T01:55:28.598Z,40.53
2017-11-03T01:56:34.017Z,41.75
2017-11-03T01:57:39.781Z,41.35
2017-11-03T01:58:45.548Z,41.80
2017-11-03T01:59:52.084Z,45.25
2017-11-03T02:00:57.181Z,44.65
2017-11-03T02:02:02.950Z,44.38
2017-11-03T02:04:14.845Z,44.08
2017-11-03T02:05:22.112Z,42.88
2017-11-03T02:06:27.898Z,38.50
2017-11-03T02:07:33.660Z,41.22
2017-11-03T02:08:39.415Z,46.55
2017-11-03T02:09:45.186Z,39.92
2017-11-03T02:10:51.712Z,39.17
2017-11-03T02:11:57.489Z,38.60
2017-11-03T02:13:03.249Z,43.28
2017-11-03T02:14:09.776Z,40.15
2017-11-03T02:15:15.537Z,40.63
2017-11-03T02:16:21.291Z,41.85
2017-11-03T02:17:27.845Z,41.97
2017-11-03T02:18:33.397Z,43.13
2017-11-03T02:19:39.160Z,43.05
2017-11-03T02:20:43.984Z,43.65
2017-11-03T02:21:49.122Z,43.20
2017-11-03T02:22:54.589Z,44.70
2017-11-03T02:24:00.041Z,40.55
2017-11-03T02:25:06.569Z,41.60
2017-11-03T02:26:12.352Z,40.05
2017-11-03T02:27:18.892Z,42.13
2017-11-03T02:28:24.681Z,38.10
2017-11-03T02:29:30.448Z,40.92
2017-11-03T02:30:35.893Z,42.30
2017-11-03T02:31:41.649Z,41.17
2017-11-03T02:32:47.408Z,39.22
2017-11-03T02:33:53.968Z,37.15
2017-11-03T02:35:00.608Z,39.08
2017-11-03T02:36:06.637Z,39.75
2017-11-03T02:37:12.405Z,36.20
2017-11-03T02:38:18.164Z,38.50
2017-11-03T02:39:24.042Z,38.33
2017-11-03T02:40:29.814Z,38.45
2017-11-03T02:41:35.568Z,43.75
2017-11-03T02:42:41.323Z,39.38
2017-11-03T02:43:47.077Z,41.25
2017-11-03T02:44:53.641Z,42.22
2017-11-03T02:45:59.502Z,41.83
2017-11-03T02:47:05.309Z,37.90
2017-11-03T02:48:11.064Z,40.20
2017-11-03T02:49:17.594Z,39.08
2017-11-03T02:50:23.403Z,40.55
2017-11-03T02:51:29.159Z,40.67
2017-11-03T02:52:34.933Z,39.08
2017-11-03T02:53:40.688Z,38.13
2017-11-03T02:54:47.216Z,37.88
2017-11-03T02:55:53.009Z,39.75
2017-11-03T02:56:58.780Z,37.47
2017-11-03T02:58:04.542Z,43.30
2017-11-03T02:59:10.311Z,41.37
2017-11-03T03:00:16.071Z,37.08
2017-11-03T03:01:21.870Z,41.63
2017-11-03T03:02:27.624Z,43.78
2017-11-03T03:03:33.380Z,42.13
2017-11-03T03:04:39.715Z,40.88
2017-11-03T03:05:45.473Z,39.63
2017-11-03T03:06:52.040Z,38.05
2017-11-03T03:07:58.561Z,44.15
2017-11-03T03:09:03.533Z,41.10
2017-11-03T03:10:10.063Z,42.53
2017-11-03T03:11:15.821Z,39.55
2017-11-03T03:12:22.382Z,37.13
2017-11-03T03:13:28.907Z,42.38
2017-11-03T03:14:34.664Z,39.72
2017-11-03T03:15:40.155Z,42.60
2017-11-03T03:16:45.212Z,41.80
2017-11-03T03:17:52.506Z,44.78
2017-11-03T03:18:58.265Z,43.00
2017-11-03T03:20:04.440Z,39.63
2017-11-03T03:21:09.860Z,40.30
2017-11-03T03:22:16.376Z,42.55
2017-11-03T03:23:22.171Z,39.38
2017-11-03T03:24:28.349Z,42.67
2017-11-03T03:25:34.096Z,41.42
2017-11-03T03:26:39.469Z,38.90
2017-11-03T03:27:46.017Z,41.90
2017-11-03T03:28:51.803Z,41.35
2017-11-03T03:29:57.566Z,47.40
2017-11-03T03:31:03.325Z,42.20
2017-11-03T03:32:09.076Z,39.60
2017-11-03T03:33:14.834Z,41.22
2017-11-03T03:34:21.049Z,42.35
2017-11-03T03:35:26.820Z,48.17
2017-11-03T03:36:32.575Z,43.05
2017-11-03T03:37:39.106Z,45.28
2017-11-03T03:38:44.883Z,41.28
2017-11-03T03:39:51.432Z,40.33
2017-11-03T03:40:57.969Z,47.33
2017-11-03T03:42:03.741Z,44.05
2017-11-03T03:43:10.284Z,42.00
2017-11-03T03:44:16.044Z,41.10
2017-11-03T03:45:21.912Z,43.25
2017-11-03T03:46:26.993Z,46.40
2017-11-03T03:47:32.068Z,40.45
2017-11-03T03:48:37.127Z,39.75
2017-11-03T03:49:42.337Z,44.00
2017-11-03T03:50:48.122Z,48.28
2017-11-03T03:51:53.896Z,43.30
2017-11-03T03:52:59.661Z,47.47
2017-11-03T03:54:05.074Z,43.47
2017-11-03T03:55:10.829Z,42.90
2017-11-03T03:56:15.919Z,43.30
2017-11-03T03:57:21.760Z,44.28
2017-11-03T03:58:28.285Z,39.55
2017-11-03T03:59:34.058Z,49.70
2017-11-03T04:00:40.594Z,44.58
2017-11-03T04:01:46.386Z,45.15
2017-11-03T04:02:52.144Z,37.92
2017-11-03T04:03:57.565Z,40.83
2017-11-03T04:05:03.321Z,40.10
2017-11-03T04:06:09.097Z,41.50
2017-11-03T04:07:14.897Z,44.92
2017-11-03T04:08:20.657Z,39.35
2017-11-03T04:09:25.736Z,45.50
2017-11-03T04:10:31.917Z,44.60
2017-11-03T04:11:37.472Z,42.50
2017-11-03T04:12:43.060Z,46.83
2017-11-03T04:13:49.593Z,44.15
2017-11-03T04:14:56.862Z,44.05
2017-11-03T04:16:02.885Z,43.87
2017-11-03T04:17:08.649Z,45.25
2017-11-03T04:18:14.257Z,45.72
2017-11-03T04:19:20.056Z,38.90
2017-11-03T04:20:25.825Z,52.20
2017-11-03T04:21:31.588Z,46.47
2017-11-03T04:22:37.344Z,42.97
2017-11-03T04:23:43.136Z,42.47
2017-11-03T04:24:49.665Z,44.95
2017-11-03T04:25:55.501Z,42.85
2017-11-03T04:27:01.259Z,45.30
2017-11-03T04:28:07.440Z,42.90
2017-11-03T04:29:13.236Z,44.30
2017-11-03T04:30:18.993Z,40.85
2017-11-03T04:31:24.778Z,40.38
2017-11-03T04:32:30.527Z,41.55
2017-11-03T04:33:35.957Z,41.63
2017-11-03T04:34:41.740Z,45.10
2017-11-03T04:35:47.501Z,40.03
2017-11-03T04:36:53.268Z,43.97
2017-11-03T04:37:59.024Z,41.22
2017-11-03T04:39:04.181Z,42.47
2017-11-03T04:40:10.002Z,43.13
2017-11-03T04:41:15.768Z,38.97
2017-11-03T04:42:22.408Z,44.55
2017-11-03T04:43:28.177Z,40.33
2017-11-03T04:44:33.952Z,43.90
2017-11-03T04:45:39.824Z,43.80
2017-11-03T04:46:44.912Z,43.70
2017-11-03T04:47:51.100Z,46.53
2017-11-03T04:48:56.868Z,41.63
2017-11-03T04:50:02.625Z,42.83
2017-11-03T04:51:08.407Z,45.00
2017-11-03T04:52:14.984Z,39.40
2017-11-03T04:53:20.392Z,43.35
2017-11-03T04:54:25.990Z,43.65
2017-11-03T04:55:31.059Z,42.85
2017-11-03T04:56:37.405Z,45.83
2017-11-03T04:57:43.933Z,43.67
2017-11-03T04:58:49.692Z,43.92
2017-11-03T04:59:56.235Z,43.78
2017-11-03T05:01:01.993Z,42.90
2017-11-03T05:02:07.776Z,45.63
2017-11-03T05:03:13.545Z,44.20
2017-11-03T05:04:19.304Z,44.38
2017-11-03T05:05:25.069Z,44.85
2017-11-03T05:06:30.831Z,41.20
2017-11-03T05:07:36.629Z,48.00
2017-11-03T05:08:42.387Z,45.92
2017-11-03T05:09:48.152Z,44.50
2017-11-03T05:10:54.689Z,41.05
2017-11-03T05:12:00.448Z,48.67
2017-11-03T05:13:06.242Z,40.05
2017-11-03T05:14:12.016Z,47.15
2017-11-03T05:15:17.783Z,47.10
2017-11-03T05:16:25.048Z,43.15
2017-11-03T05:17:30.814Z,44.85
2017-11-03T05:18:37.441Z,42.20
2017-11-03T05:19:43.202Z,39.83
2017-11-03T05:20:48.961Z,40.97
2017-11-03T05:21:55.481Z,41.22
2017-11-03T05:23:01.252Z,47.67
2017-11-03T05:24:06.585Z,45.38
2017-11-03T05:25:12.344Z,43.65
2017-11-03T05:26:18.864Z,40.97
2017-11-03T05:27:24.624Z,44.13
2017-11-03T05:28:30.674Z,43.47
2017-11-03T05:29:36.465Z,48.05
2017-11-03T05:30:42.228Z,44.53
2017-11-03T05:31:47.998Z,45.75
2017-11-03T05:32:53.765Z,47.30
2017-11-03T05:33:59.537Z,43.63
2017-11-03T05:35:05.334Z,46.58
2017-11-03T05:36:11.192Z,41.78
2017-11-03T05:37:16.674Z,45.80
2017-11-03T05:38:22.106Z,45.80
2017-11-03T05:39:26.940Z,45.15
2017-11-03T05:40:32.633Z,42.58
2017-11-03T05:41:38.393Z,43.87
2017-11-03T05:42:44.164Z,39.92
2017-11-03T05:43:49.929Z,42.40
2017-11-03T05:44:56.126Z,47.22
2017-11-03T05:46:01.922Z,46.58
2017-11-03T05:47:08.451Z,43.85
2017-11-03T05:48:14.225Z,44.10
2017-11-03T05:49:20.771Z,46.55
2017-11-03T05:50:28.040Z,42.50
2017-11-03T05:51:33.641Z,48.20
2017-11-03T05:52:39.417Z,45.55
2017-11-03T05:53:44.832Z,47.45
2017-11-03T05:54:50.249Z,50.10
2017-11-03T05:55:56.008Z,48.85
2017-11-03T05:57:01.800Z,46.20
2017-11-03T05:58:08.325Z,45.80
2017-11-03T05:59:14.085Z,51.65
2017-11-03T06:00:20.616Z,48.08
2017-11-03T06:01:26.456Z,48.72
2017-11-03T06:02:32.228Z,52.60
2017-11-03T06:03:37.988Z,47.78
2017-11-03T06:04:44.516Z,52.85
2017-11-03T06:05:50.279Z,46.10
2017-11-03T06:06:56.040Z,50.63
2017-11-03T06:08:02.593Z,49.80
2017-11-03T06:09:08.359Z,53.03
2017-11-03T06:10:14.873Z,52.22
2017-11-03T06:11:20.455Z,47.00
2017-11-03T06:12:27.305Z,52.83
2017-11-03T06:13:33.102Z,52.72
2017-11-03T06:14:38.856Z,54.92
2017-11-03T06:15:44.632Z,57.45
2017-11-03T06:16:51.900Z,49.67
2017-11-03T06:17:57.477Z,53.50
2017-11-03T06:19:03.264Z,52.38
2017-11-03T06:20:09.065Z,50.70
2017-11-03T06:21:14.642Z,54.33
2017-11-03T06:22:20.391Z,48.45
2017-11-03T06:23:25.960Z,54.90
2017-11-03T06:24:32.514Z,54.30
2017-11-03T06:25:38.532Z,53.22
2017-11-03T06:26:44.346Z,52.50
2017-11-03T06:27:50.088Z,52.72
2017-11-03T06:28:55.660Z,53.42
2017-11-03T06:30:01.466Z,53.10
2017-11-03T06:31:07.241Z,57.85
2017-11-03T06:32:13.001Z,51.72
2017-11-03T06:33:18.757Z,59.20
2017-11-03T06:34:24.501Z,55.35
2017-11-03T06:35:31.048Z,57.60
2017-11-03T06:36:36.796Z,54.30
2017-11-03T06:37:42.559Z,57.10
2017-11-03T06:38:49.070Z,59.03
2017-11-03T06:39:54.835Z,52.35
2017-11-03T06:41:02.147Z,58.63
2017-11-03T06:42:07.560Z,55.58
2017-11-03T06:43:14.077Z,53.42
2017-11-03T06:44:19.850Z,55.45
2017-11-03T06:45:26.384Z,60.10
2017-11-03T06:46:31.950Z,57.13
2017-11-03T06:47:38.478Z,56.60
2017-11-03T06:48:44.240Z,52.03
2017-11-03T06:49:50.004Z,52.22
2017-11-03T06:50:56.532Z,59.13
2017-11-03T06:52:02.317Z,50.30
2017-11-03T06:53:08.131Z,52.60
2017-11-03T06:54:13.885Z,48.42
2017-11-03T06:55:20.060Z,58.55
2017-11-03T06:56:25.823Z,49.30
2017-11-03T06:57:31.604Z,51.08
2017-11-03T06:58:37.364Z,50.38
2017-11-03T06:59:43.909Z,49.83
2017-11-03T07:00:49.666Z,48.05
2017-11-03T07:01:56.183Z,53.75
2017-11-03T07:03:01.974Z,45.20
2017-11-03T07:04:07.744Z,47.78
2017-11-03T07:05:13.492Z,46.60
2017-11-03T07:06:19.258Z,47.65
2017-11-03T07:07:25.023Z,53.60
2017-11-03T07:08:30.818Z,55.92
2017-11-03T07:09:36.583Z,54.60
2017-11-03T07:10:42.353Z,44.58
2017-11-03T07:11:48.883Z,48.75
2017-11-03T07:12:54.643Z,53.20
2017-11-03T07:14:00.524Z,51.53
2017-11-03T07:15:05.940Z,54.63
2017-11-03T07:16:12.484Z,57.83
2017-11-03T07:17:19.010Z,47.55
2017-11-03T07:18:24.778Z,47.13
2017-11-03T07:19:30.624Z,50.25
2017-11-03T07:20:36.060Z,50.63
2017-11-03T07:21:41.824Z,56.97
2017-11-03T07:22:47.606Z,48.78
2017-11-03T07:23:54.130Z,53.20
2017-11-03T07:24:59.921Z,56.80
2017-11-03T07:26:05.676Z,52.50
2017-11-03T07:27:11.451Z,51.60
2017-11-03T07:28:17.981Z,54.90
2017-11-03T07:29:23.741Z,51.50
2017-11-03T07:30:29.517Z,57.35
2017-11-03T07:31:35.275Z,52.35
2017-11-03T07:32:41.046Z,53.00
2017-11-03T07:33:46.804Z,48.92
2017-11-03T07:34:53.332Z,55.45
2017-11-03T07:35:59.120Z,48.55
2017-11-03T07:37:04.891Z,53.63
2017-11-03T07:38:10.652Z,53.87
2017-11-03T07:39:16.412Z,52.65
2017-11-03T07:40:22.285Z,52.67
2017-11-03T07:41:28.629Z,53.83
2017-11-03T07:42:35.156Z,54.75
2017-11-03T07:43:40.921Z,51.67
2017-11-03T07:44:47.471Z,52.33
2017-11-03T07:45:53.226Z,58.17
2017-11-03T07:46:59.027Z,52.53
2017-11-03T07:48:04.800Z,52.85
2017-11-03T07:49:10.812Z,47.50
2017-11-03T07:50:16.577Z,51.37
2017-11-03T07:51:22.344Z,51.28
2017-11-03T07:52:28.896Z,50.25
2017-11-03T07:53:34.476Z,46.47
2017-11-03T07:54:40.265Z,49.10
2017-11-03T07:55:46.031Z,51.33
2017-11-03T07:56:52.562Z,48.38
2017-11-03T07:57:58.345Z,47.05
2017-11-03T07:59:04.106Z,45.70
2017-11-03T08:00:09.673Z,45.38
2017-11-03T08:01:15.436Z,45.03
2017-11-03T08:02:21.207Z,47.33
2017-11-03T08:03:26.653Z,44.60
2017-11-03T08:04:32.414Z,48.08
2017-11-03T08:05:38.177Z,50.83
2017-11-03T08:06:43.951Z,45.22
2017-11-03T08:07:50.477Z,46.72
2017-11-03T08:08:56.269Z,43.03
2017-11-03T08:10:02.029Z,46.10
2017-11-03T08:11:07.798Z,45.95
2017-11-03T08:12:13.560Z,45.10
2017-11-03T08:13:19.321Z,42.65
2017-11-03T08:14:25.098Z,43.97
2017-11-03T08:15:30.867Z,42.47
2017-11-03T08:16:36.679Z,44.65
2017-11-03T08:17:42.433Z,43.47
2017-11-03T08:18:48.184Z,41.85
2017-11-03T08:19:53.981Z,42.50
2017-11-03T08:21:00.492Z,41.03
2017-11-03T08:22:06.257Z,37.78
2017-11-03T08:23:12.007Z,41.13
2017-11-03T08:24:17.769Z,43.08
2017-11-03T08:25:24.323Z,40.12
2017-11-03T08:26:30.904Z,40.97
2017-11-03T08:27:36.676Z,35.85
2017-11-03T08:28:42.443Z,42.92
2017-11-03T08:29:48.231Z,47.62
2017-11-03T08:30:54.013Z,42.58
2017-11-03T08:31:59.776Z,36.95
2017-11-03T08:33:05.197Z,38.22
2017-11-03T08:34:11.744Z,37.67
2017-11-03T08:35:17.501Z,38.55
2017-11-03T08:36:23.301Z,37.17
2017-11-03T08:37:29.072Z,38.85
2017-11-03T08:38:34.841Z,35.60
2017-11-03T08:39:41.372Z,34.58
2017-11-03T08:40:47.132Z,32.55
2017-11-03T08:41:53.689Z,33.92
2017-11-03T08:43:00.972Z,35.60
2017-11-03T08:44:06.736Z,35.05
2017-11-03T08:45:13.266Z,37.28
2017-11-03T08:46:19.808Z,35.15
2017-11-03T08:47:25.597Z,37.67
2017-11-03T08:48:32.137Z,37.70
2017-11-03T08:49:37.913Z,37.53
2017-11-03T08:50:43.661Z,37.40
2017-11-03T08:51:49.442Z,34.88
2017-11-03T08:52:56.263Z,37.08
2017-11-03T08:54:02.023Z,33.50
2017-11-03T08:55:07.804Z,34.17
2017-11-03T08:56:12.936Z,34.65
2017-11-03T08:57:18.689Z,37.40
2017-11-03T08:58:25.248Z,38.70
2017-11-03T08:59:30.309Z,37.33
2017-11-03T09:00:36.073Z,34.28
2017-11-03T09:01:41.837Z,36.97
2017-11-03T09:02:47.608Z,36.05
2017-11-03T09:03:54.195Z,34.28
2017-11-03T09:04:59.963Z,36.58
2017-11-03T09:06:06.749Z,36.25
2017-11-03T09:07:12.168Z,36.53
2017-11-03T09:08:17.909Z,35.53
2017-11-03T09:09:23.697Z,34.63
2017-11-03T09:10:29.460Z,32.38
2017-11-03T09:11:35.239Z,34.33
2017-11-03T09:12:42.030Z,35.03
2017-11-03T09:13:47.789Z,37.63
2017-11-03T09:14:54.357Z,40.55
2017-11-03T09:16:00.117Z,37.35
2017-11-03T09:17:05.692Z,37.30
2017-11-03T09:18:11.468Z,36.55
2017-11-03T09:19:17.999Z,39.75
2017-11-03T09:20:23.192Z,35.20
2017-11-03T09:21:28.255Z,40.00
2017-11-03T09:22:33.341Z,36.03
2017-11-03T09:23:38.408Z,34.67
2017-11-03T09:24:43.625Z,32.38
2017-11-03T09:25:48.749Z,36.78
2017-11-03T09:26:54.514Z,33.78
2017-11-03T09:28:00.277Z,35.80
2017-11-03T09:29:06.036Z,34.65
2017-11-03T09:30:11.794Z,47.62
2017-11-03T09:31:17.589Z,36.63
2017-11-03T09:32:24.142Z,39.13
2017-11-03T09:33:29.897Z,35.97
2017-11-03T09:34:36.128Z,34.42
2017-11-03T09:35:41.886Z,36.60
2017-11-03T09:36:48.442Z,34.95
2017-11-03T09:37:54.976Z,37.97
2017-11-03T09:39:02.267Z,35.35
2017-11-03T09:40:08.156Z,34.90
2017-11-03T09:41:13.915Z,36.33
2017-11-03T09:42:19.705Z,35.17
2017-11-03T09:43:26.247Z,31.02
2017-11-03T09:44:32.031Z,34.95
2017-11-03T09:45:38.208Z,38.05
2017-11-03T09:46:43.977Z,35.97
2017-11-03T09:47:49.770Z,37.80
2017-11-03T09:48:55.536Z,37.00
2017-11-03T09:50:01.311Z,34.70
2017-11-03T09:51:06.719Z,32.33
2017-11-03T09:52:13.265Z,34.53
2017-11-03T09:53:19.093Z,33.03
2017-11-03T09:54:24.863Z,32.05
2017-11-03T09:55:30.683Z,34.17
2017-11-03T09:56:36.443Z,31.75
2017-11-03T09:57:42.213Z,29.48
2017-11-03T09:58:48.019Z,29.23
2017-11-03T09:59:53.811Z,28.17
2017-11-03T10:00:59.997Z,27.42
2017-11-03T10:02:05.795Z,33.25
2017-11-03T10:03:11.547Z,30.98
2017-11-03T10:04:18.113Z,30.52
2017-11-03T10:05:24.656Z,31.37
2017-11-03T10:06:31.928Z,32.88
2017-11-03T10:07:37.703Z,31.35
2017-11-03T10:08:43.468Z,29.65
2017-11-03T10:09:50.247Z,29.77
2017-11-03T10:10:56.018Z,28.83
2017-11-03T10:12:01.800Z,27.42
2017-11-03T10:13:07.222Z,27.58
2017-11-03T10:14:13.604Z,27.87
2017-11-03T10:15:20.168Z,30.05
2017-11-03T10:16:26.688Z,25.95
2017-11-03T10:17:32.459Z,25.67
2017-11-03T10:18:38.987Z,26.92
2017-11-03T10:19:44.796Z,28.25
2017-11-03T10:20:50.419Z,26.27
2017-11-03T10:21:56.953Z,26.30
2017-11-03T10:23:02.728Z,26.23
2017-11-03T10:24:07.958Z,26.80
2017-11-03T10:25:12.883Z,22.85
2017-11-03T10:26:18.668Z,26.00
2017-11-03T10:27:25.201Z,23.10
2017-11-03T10:28:30.959Z,26.40
2017-11-03T10:29:36.713Z,25.05
2017-11-03T10:30:42.485Z,24.85
2017-11-03T10:31:49.044Z,26.98
2017-11-03T10:32:55.577Z,22.58
2017-11-03T10:34:00.989Z,26.95
2017-11-03T10:35:06.758Z,25.60
2017-11-03T10:36:12.508Z,26.48
2017-11-03T10:37:18.594Z,25.92
2017-11-03T10:38:24.362Z,25.15
2017-11-03T10:39:29.869Z,28.25
2017-11-03T10:40:35.634Z,25.20
2017-11-03T10:41:41.408Z,29.37
2017-11-03T10:42:47.197Z,24.92
2017-11-03T10:43:52.960Z,20.92
2017-11-03T10:44:58.724Z,23.70
2017-11-03T10:46:04.235Z,21.95
2017-11-03T10:47:09.993Z,25.23
2017-11-03T10:48:15.784Z,24.85
2017-11-03T10:49:21.553Z,21.83
2017-11-03T10:50:26.636Z,20.48
2017-11-03T10:51:32.473Z,21.85
2017-11-03T10:52:38.705Z,22.55
2017-11-03T10:53:43.826Z,23.35
2017-11-03T10:54:49.587Z,24.17
2017-11-03T10:55:56.878Z,23.85
2017-11-03T10:57:03.419Z,24.83
2017-11-03T10:58:09.255Z,24.60
2017-11-03T10:59:15.040Z,25.50
2017-11-03T11:00:20.877Z,26.33
2017-11-03T11:01:25.955Z,22.58
2017-11-03T11:02:31.361Z,26.67
2017-11-03T11:03:36.781Z,26.85
2017-11-03T11:04:42.569Z,25.05
2017-11-03T11:05:48.333Z,24.42
2017-11-03T11:06:54.105Z,24.48
2017-11-03T11:07:59.963Z,25.37
2017-11-03T11:09:05.062Z,24.95
2017-11-03T11:10:11.616Z,25.10
2017-11-03T11:11:18.151Z,24.65
2017-11-03T11:12:24.678Z,28.30
2017-11-03T11:13:30.097Z,24.52
2017-11-03T11:14:35.264Z,23.83
2017-11-03T11:15:41.064Z,27.55
2017-11-03T11:16:46.838Z,27.40
2017-11-03T11:17:52.602Z,26.83
2017-11-03T11:18:59.129Z,27.50
2017-11-03T11:20:04.556Z,26.60
2017-11-03T11:21:10.000Z,25.05
2017-11-03T11:22:15.766Z,25.67
2017-11-03T11:23:23.032Z,23.85
2017-11-03T11:24:28.528Z,25.35
2017-11-03T11:25:33.961Z,25.17
2017-11-03T11:26:39.754Z,21.85
2017-11-03T11:27:45.510Z,26.70
2017-11-03T11:28:51.544Z,25.52
2017-11-03T11:29:57.313Z,23.42
2017-11-03T11:31:03.848Z,23.87
2017-11-03T11:32:09.639Z,23.17
2017-11-03T11:33:15.053Z,25.20
2017-11-03T11:34:21.580Z,26.55
2017-11-03T11:35:26.657Z,23.75
2017-11-03T11:36:31.750Z,23.90
2017-11-03T11:37:37.970Z,24.35
2017-11-03T11:38:43.039Z,23.83
2017-11-03T11:39:48.909Z,28.17
2017-11-03T11:40:53.981Z,26.08
2017-11-03T11:41:59.436Z,24.48
2017-11-03T11:43:05.679Z,22.75
2017-11-03T11:44:11.692Z,27.87
2017-11-03T11:45:17.108Z,24.75
2017-11-03T11:46:22.181Z,27.00
2017-11-03T11:47:27.260Z,25.15
2017-11-03T11:48:33.048Z,25.35
2017-11-03T11:49:38.464Z,27.67
2017-11-03T11:50:43.536Z,25.52
2017-11-03T11:51:49.732Z,27.17
2017-11-03T11:52:55.152Z,23.38
2017-11-03T11:54:00.593Z,21.98
2017-11-03T11:55:06.030Z,23.27
2017-11-03T11:56:11.107Z,24.95
2017-11-03T11:57:16.960Z,24.37
2017-11-03T11:58:23.142Z,23.50
2017-11-03T11:59:28.249Z,25.88
2017-11-03T12:00:33.318Z,23.80
2017-11-03T12:01:38.742Z,26.98
2017-11-03T12:02:44.519Z,22.70
2017-11-03T12:03:49.599Z,25.00
2017-11-03T12:04:55.042Z,21.90
2017-11-03T12:06:00.143Z,24.50
2017-11-03T12:07:05.402Z,24.20
2017-11-03T12:08:10.490Z,20.95
2017-11-03T12:09:15.908Z,22.20
2017-11-03T12:10:21.773Z,22.85
2017-11-03T12:11:26.840Z,26.67
2017-11-03T12:12:32.269Z,22.40
2017-11-03T12:13:37.349Z,23.35
2017-11-03T12:14:42.434Z,28.58
2017-11-03T12:15:47.546Z,23.27
2017-11-03T12:16:52.623Z,25.33
2017-11-03T12:17:58.388Z,23.90
2017-11-03T12:19:03.470Z,23.00
2017-11-03T12:20:09.304Z,23.15
2017-11-03T12:21:14.752Z,22.77
2017-11-03T12:22:21.528Z,25.08
2017-11-03T12:23:27.708Z,24.17
2017-11-03T12:24:32.528Z,27.20
2017-11-03T12:25:37.950Z,22.33
2017-11-03T12:26:43.040Z,23.48
2017-11-03T12:27:49.236Z,22.48
2017-11-03T12:28:54.645Z,27.10
2017-11-03T12:29:59.744Z,23.17
2017-11-03T12:31:05.423Z,22.17
2017-11-03T12:32:10.503Z,22.10
2017-11-03T12:33:15.930Z,23.60
2017-11-03T12:34:21.156Z,25.35
2017-11-03T12:35:26.215Z,23.95
2017-11-03T12:36:32.056Z,24.90
2017-11-03T12:37:37.940Z,23.92
2017-11-03T12:38:42.998Z,26.77
2017-11-03T12:39:48.083Z,24.65
2017-11-03T12:40:55.809Z,30.55
2017-11-03T12:42:00.880Z,25.17
2017-11-03T12:43:06.739Z,25.98
2017-11-03T12:44:11.819Z,26.52
2017-11-03T12:45:17.226Z,26.45
2017-11-03T12:46:22.663Z,25.62
2017-11-03T12:47:28.100Z,26.23
2017-11-03T12:48:33.545Z,24.23
2017-11-03T12:49:38.609Z,25.95
2017-11-03T12:50:43.747Z,23.23
2017-11-03T12:51:49.004Z,23.95
2017-11-03T12:52:54.113Z,29.70
2017-11-03T12:54:00.220Z,27.83
2017-11-03T12:55:06.402Z,25.92
2017-11-03T12:56:11.812Z,25.92
2017-11-03T12:57:17.991Z,25.50
2017-11-03T12:58:23.478Z,28.90
2017-11-03T12:59:28.583Z,24.60
2017-11-03T13:00:33.653Z,25.23
2017-11-03T13:01:40.034Z,25.90
2017-11-03T13:02:45.137Z,27.23
2017-11-03T13:03:51.001Z,24.55
2017-11-03T13:04:56.094Z,30.55
2017-11-03T13:06:02.281Z,23.60
2017-11-03T13:07:07.348Z,24.85
2017-11-03T13:08:12.426Z,23.40
2017-11-03T13:09:17.489Z,24.73
2017-11-03T13:10:22.924Z,23.15
2017-11-03T13:11:28.016Z,27.95
2017-11-03T13:12:33.469Z,25.55
2017-11-03T13:13:38.540Z,23.05
2017-11-03T13:14:45.071Z,25.33
2017-11-03T13:15:50.205Z,23.00
2017-11-03T13:16:56.388Z,23.83
2017-11-03T13:18:02.927Z,22.33
2017-11-03T13:19:07.993Z,23.60
2017-11-03T13:20:13.066Z,25.08
2017-11-03T13:21:18.164Z,22.45
2017-11-03T13:22:24.480Z,23.70
2017-11-03T13:23:30.677Z,23.77
2017-11-03T13:24:35.749Z,26.95
2017-11-03T13:25:41.944Z,29.10
2017-11-03T13:26:46.899Z,26.00
2017-11-03T13:27:52.145Z,25.27
2017-11-03T13:28:57.931Z,24.50
2017-11-03T13:30:03.197Z,26.08
2017-11-03T13:31:08.616Z,23.38
2017-11-03T13:32:14.061Z,23.75
2017-11-03T13:33:19.148Z,23.87
2017-11-03T13:34:24.577Z,28.15
2017-11-03T13:35:29.986Z,28.20
2017-11-03T13:36:35.825Z,25.75
2017-11-03T13:37:42.414Z,20.15
2017-11-03T13:38:47.515Z,21.58
2017-11-03T13:39:52.577Z,25.40
2017-11-03T13:40:58.026Z,25.58
2017-11-03T13:42:03.841Z,24.48
2017-11-03T13:43:09.317Z,23.85
2017-11-03T13:44:14.744Z,21.15
2017-11-03T13:45:19.817Z,21.75
2017-11-03T13:46:26.365Z,24.20
2017-11-03T13:47:32.209Z,22.73
2017-11-03T13:48:37.709Z,23.40
2017-11-03T13:49:42.780Z,21.48
2017-11-03T13:50:48.773Z,22.45
2017-11-03T13:51:53.644Z,23.23
2017-11-03T13:53:00.187Z,23.65
2017-11-03T13:54:05.633Z,21.70
2017-11-03T13:55:11.059Z,27.13
2017-11-03T13:56:16.495Z,21.95
2017-11-03T13:57:21.935Z,23.12
2017-11-03T13:58:27.349Z,26.52
2017-11-03T13:59:32.551Z,22.95
2017-11-03T14:00:38.209Z,22.95
2017-11-03T14:01:43.972Z,22.37
2017-11-03T14:02:49.404Z,22.55
2017-11-03T14:03:55.969Z,20.27
2017-11-03T14:05:01.061Z,22.48
2017-11-03T14:06:06.496Z,20.55
2017-11-03T14:07:11.913Z,19.60
2017-11-03T14:08:16.985Z,21.70